sensor_id;sensor_type;location;lat;lon;timestamp;temperature;humidity
18868;DHT22;9563;49.240;9.088;2023-03-14T00:00:51;10.90;99.90
18868;DHT22;9563;49.240;9.088;2023-03-14T00:03:19;10.90;99.90
18868;DHT22;9563;49.240;9.088;2023-03-14T00:05:46;10.90;99.90
18868;DHT22;9563;49.240;9.088;2023-03-14T00:08:13;10.90;99.90
18868;DHT22;9563;49.240;9.088;2023-03-14T00:10:40;10.90;99.90
18868;DHT22;9563;49.240;9.088;2023-03-14T00:13:07;10.90;99.90
18868;DHT22;9563;49.240;9.088;2023-03-14T00:15:34;11.00;99.90
18868;DHT22;9563;49.240;9.088;2023-03-14T00:18:01;10.90;99.90
18868;DHT22;9563;49.240;9.088;2023-03-14T00:20:30;10.90;99.90
18868;DHT22;9563;49.240;9.088;2023-03-14T00:22:56;11.00;99.90
18868;DHT22;9563;49.240;9.088;2023-03-14T00:25:23;11.00;99.90
18868;DHT22;9563;49.240;9.088;2023-03-14T00:27:50;11.00;99.90
18868;DHT22;9563;49.240;9.088;2023-03-14T00:30:17;10.90;99.90
18868;DHT22;9563;49.240;9.088;2023-03-14T00:32:44;11.00;99.90
18868;DHT22;9563;49.240;9.088;2023-03-14T00:35:11;11.00;99.90
18868;DHT22;9563;49.240;9.088;2023-03-14T00:37:39;11.00;99.90
18868;DHT22;9563;49.240;9.088;2023-03-14T00:40:07;11.00;99.90
18868;DHT22;9563;49.240;9.088;2023-03-14T00:42:34;11.10;99.90
18868;DHT22;9563;49.240;9.088;2023-03-14T00:45:01;11.00;99.90
18868;DHT22;9563;49.240;9.088;2023-03-14T00:47:29;11.00;99.90
18868;DHT22;9563;49.240;9.088;2023-03-14T00:49:56;11.00;99.90
18868;DHT22;9563;49.240;9.088;2023-03-14T00:52:22;11.00;99.90
18868;DHT22;9563;49.240;9.088;2023-03-14T00:54:50;11.00;99.90
18868;DHT22;9563;49.240;9.088;2023-03-14T00:57:17;11.00;99.90
18868;DHT22;9563;49.240;9.088;2023-03-14T00:59:44;10.90;99.90
18868;DHT22;9563;49.240;9.088;2023-03-14T01:02:11;11.00;99.90
18868;DHT22;9563;49.240;9.088;2023-03-14T01:04:37;10.90;99.90
18868;DHT22;9563;49.240;9.088;2023-03-14T01:07:04;10.90;99.90
18868;DHT22;9563;49.240;9.088;2023-03-14T01:09:31;10.90;99.90
18868;DHT22;9563;49.240;9.088;2023-03-14T01:11:59;10.90;99.90
18868;DHT22;9563;49.240;9.088;2023-03-14T01:14:26;10.90;99.90
18868;DHT22;9563;49.240;9.088;2023-03-14T01:16:53;10.90;99.90
18868;DHT22;9563;49.240;9.088;2023-03-14T01:19:26;10.90;99.90
18868;DHT22;9563;49.240;9.088;2023-03-14T01:21:53;10.90;99.90
18868;DHT22;9563;49.240;9.088;2023-03-14T01:24:20;10.90;99.90
18868;DHT22;9563;49.240;9.088;2023-03-14T01:26:47;10.90;99.90
18868;DHT22;9563;49.240;9.088;2023-03-14T01:29:15;10.90;99.90
18868;DHT22;9563;49.240;9.088;2023-03-14T01:31:41;10.80;99.90
18868;DHT22;9563;49.240;9.088;2023-03-14T01:34:08;10.80;99.90
18868;DHT22;9563;49.240;9.088;2023-03-14T01:36:35;10.80;99.90
18868;DHT22;9563;49.240;9.088;2023-03-14T01:39:03;10.90;99.90
18868;DHT22;9563;49.240;9.088;2023-03-14T01:41:31;10.90;99.90
18868;DHT22;9563;49.240;9.088;2023-03-14T01:43:58;10.90;99.90
18868;DHT22;9563;49.240;9.088;2023-03-14T01:46:30;11.00;99.90
18868;DHT22;9563;49.240;9.088;2023-03-14T01:49:13;10.90;99.90
18868;DHT22;9563;49.240;9.088;2023-03-14T01:51:46;10.90;99.90
18868;DHT22;9563;49.240;9.088;2023-03-14T01:54:17;10.90;99.90
18868;DHT22;9563;49.240;9.088;2023-03-14T01:56:49;10.90;99.90
18868;DHT22;9563;49.240;9.088;2023-03-14T01:59:17;10.90;99.90
18868;DHT22;9563;49.240;9.088;2023-03-14T02:01:47;10.80;99.90
18868;DHT22;9563;49.240;9.088;2023-03-14T02:04:16;10.80;99.90
18868;DHT22;9563;49.240;9.088;2023-03-14T02:06:49;10.80;99.90
18868;DHT22;9563;49.240;9.088;2023-03-14T02:09:17;10.70;99.90
18868;DHT22;9563;49.240;9.088;2023-03-14T02:11:44;10.70;99.90
18868;DHT22;9563;49.240;9.088;2023-03-14T02:14:19;10.70;99.90
18868;DHT22;9563;49.240;9.088;2023-03-14T02:16:49;10.70;99.90
18868;DHT22;9563;49.240;9.088;2023-03-14T02:19:18;10.70;99.90
18868;DHT22;9563;49.240;9.088;2023-03-14T02:21:52;10.70;99.90
18868;DHT22;9563;49.240;9.088;2023-03-14T02:24:27;10.70;99.90
18868;DHT22;9563;49.240;9.088;2023-03-14T02:27:11;10.80;99.90
18868;DHT22;9563;49.240;9.088;2023-03-14T02:29:48;10.80;99.90
18868;DHT22;9563;49.240;9.088;2023-03-14T02:32:16;10.80;99.90
18868;DHT22;9563;49.240;9.088;2023-03-14T02:34:49;10.80;99.90
18868;DHT22;9563;49.240;9.088;2023-03-14T02:37:18;10.80;99.90
18868;DHT22;9563;49.240;9.088;2023-03-14T02:39:46;10.80;99.90
18868;DHT22;9563;49.240;9.088;2023-03-14T02:42:16;10.80;99.90
18868;DHT22;9563;49.240;9.088;2023-03-14T02:44:51;10.80;99.90
18868;DHT22;9563;49.240;9.088;2023-03-14T02:47:21;10.80;99.90
18868;DHT22;9563;49.240;9.088;2023-03-14T02:49:59;10.80;99.90
18868;DHT22;9563;49.240;9.088;2023-03-14T02:52:28;10.80;99.90
18868;DHT22;9563;49.240;9.088;2023-03-14T02:54:55;10.80;99.90
18868;DHT22;9563;49.240;9.088;2023-03-14T02:57:23;10.80;99.90
18868;DHT22;9563;49.240;9.088;2023-03-14T02:59:50;10.90;99.90
18868;DHT22;9563;49.240;9.088;2023-03-14T03:02:17;10.90;99.90
18868;DHT22;9563;49.240;9.088;2023-03-14T03:04:44;10.90;99.90
18868;DHT22;9563;49.240;9.088;2023-03-14T03:07:11;10.90;99.90
18868;DHT22;9563;49.240;9.088;2023-03-14T03:09:38;10.90;99.90
18868;DHT22;9563;49.240;9.088;2023-03-14T03:12:05;10.90;99.90
18868;DHT22;9563;49.240;9.088;2023-03-14T03:14:34;10.90;99.90
18868;DHT22;9563;49.240;9.088;2023-03-14T03:17:00;10.90;99.90
18868;DHT22;9563;49.240;9.088;2023-03-14T03:19:27;10.90;99.90
18868;DHT22;9563;49.240;9.088;2023-03-14T03:21:54;10.90;99.90
18868;DHT22;9563;49.240;9.088;2023-03-14T03:24:21;10.90;99.90
18868;DHT22;9563;49.240;9.088;2023-03-14T03:26:48;10.90;99.90
18868;DHT22;9563;49.240;9.088;2023-03-14T03:29:14;10.80;99.90
18868;DHT22;9563;49.240;9.088;2023-03-14T03:31:43;10.80;99.90
18868;DHT22;9563;49.240;9.088;2023-03-14T03:34:11;10.80;99.90
18868;DHT22;9563;49.240;9.088;2023-03-14T03:36:38;10.70;99.90
18868;DHT22;9563;49.240;9.088;2023-03-14T03:39:05;10.70;99.90
18868;DHT22;9563;49.240;9.088;2023-03-14T03:41:32;10.60;99.90
18868;DHT22;9563;49.240;9.088;2023-03-14T03:43:59;10.60;99.90
18868;DHT22;9563;49.240;9.088;2023-03-14T03:46:26;10.70;99.90
18868;DHT22;9563;49.240;9.088;2023-03-14T03:48:56;10.60;99.90
18868;DHT22;9563;49.240;9.088;2023-03-14T03:51:23;10.60;99.90
18868;DHT22;9563;49.240;9.088;2023-03-14T03:53:50;10.60;99.90
18868;DHT22;9563;49.240;9.088;2023-03-14T03:56:17;10.60;99.90
18868;DHT22;9563;49.240;9.088;2023-03-14T03:58:44;10.60;99.90
18868;DHT22;9563;49.240;9.088;2023-03-14T04:01:11;10.50;99.90
18868;DHT22;9563;49.240;9.088;2023-03-14T04:03:38;10.50;99.90
18868;DHT22;9563;49.240;9.088;2023-03-14T04:06:10;10.50;99.90
18868;DHT22;9563;49.240;9.088;2023-03-14T04:08:37;10.50;99.90
18868;DHT22;9563;49.240;9.088;2023-03-14T04:11:04;10.40;99.90
18868;DHT22;9563;49.240;9.088;2023-03-14T04:13:31;10.40;99.90
18868;DHT22;9563;49.240;9.088;2023-03-14T04:15:58;10.50;99.90
18868;DHT22;9563;49.240;9.088;2023-03-14T04:18:25;10.40;99.90
18868;DHT22;9563;49.240;9.088;2023-03-14T04:20:53;10.40;99.90
18868;DHT22;9563;49.240;9.088;2023-03-14T04:23:21;10.40;99.90
18868;DHT22;9563;49.240;9.088;2023-03-14T04:25:49;10.40;99.90
18868;DHT22;9563;49.240;9.088;2023-03-14T04:28:16;10.30;99.90
18868;DHT22;9563;49.240;9.088;2023-03-14T04:30:43;10.40;99.90
18868;DHT22;9563;49.240;9.088;2023-03-14T04:33:10;10.30;99.90
18868;DHT22;9563;49.240;9.088;2023-03-14T04:35:38;10.40;99.90
18868;DHT22;9563;49.240;9.088;2023-03-14T04:38:05;10.40;99.90
18868;DHT22;9563;49.240;9.088;2023-03-14T04:40:33;10.40;99.90
18868;DHT22;9563;49.240;9.088;2023-03-14T04:43:00;10.40;99.90
18868;DHT22;9563;49.240;9.088;2023-03-14T04:45:26;10.50;99.90
18868;DHT22;9563;49.240;9.088;2023-03-14T04:47:53;10.40;99.90
18868;DHT22;9563;49.240;9.088;2023-03-14T04:50:20;10.50;99.90
18868;DHT22;9563;49.240;9.088;2023-03-14T04:52:48;10.50;99.90
18868;DHT22;9563;49.240;9.088;2023-03-14T04:55:14;10.50;99.90
18868;DHT22;9563;49.240;9.088;2023-03-14T04:57:43;10.40;99.90
18868;DHT22;9563;49.240;9.088;2023-03-14T05:00:11;10.40;99.90
18868;DHT22;9563;49.240;9.088;2023-03-14T05:02:38;10.50;99.90
18868;DHT22;9563;49.240;9.088;2023-03-14T05:05:06;10.50;99.90
18868;DHT22;9563;49.240;9.088;2023-03-14T05:07:33;10.50;99.90
18868;DHT22;9563;49.240;9.088;2023-03-14T05:09:59;10.50;99.90
18868;DHT22;9563;49.240;9.088;2023-03-14T05:12:26;10.60;99.90
18868;DHT22;9563;49.240;9.088;2023-03-14T05:14:55;10.50;99.90
18868;DHT22;9563;49.240;9.088;2023-03-14T05:17:21;10.50;99.90
18868;DHT22;9563;49.240;9.088;2023-03-14T05:19:48;10.50;99.90
18868;DHT22;9563;49.240;9.088;2023-03-14T05:22:15;10.50;99.90
18868;DHT22;9563;49.240;9.088;2023-03-14T05:24:42;10.50;99.90
18868;DHT22;9563;49.240;9.088;2023-03-14T05:27:09;10.50;99.90
18868;DHT22;9563;49.240;9.088;2023-03-14T05:29:35;10.50;99.90
18868;DHT22;9563;49.240;9.088;2023-03-14T05:32:04;10.50;99.90
18868;DHT22;9563;49.240;9.088;2023-03-14T05:34:31;10.50;99.90
18868;DHT22;9563;49.240;9.088;2023-03-14T05:36:58;10.50;99.90
18868;DHT22;9563;49.240;9.088;2023-03-14T05:39:25;10.50;99.90
18868;DHT22;9563;49.240;9.088;2023-03-14T05:41:52;10.50;99.90
18868;DHT22;9563;49.240;9.088;2023-03-14T05:44:21;10.50;99.90
18868;DHT22;9563;49.240;9.088;2023-03-14T05:46:48;10.50;99.90
18868;DHT22;9563;49.240;9.088;2023-03-14T05:49:16;10.50;99.90
18868;DHT22;9563;49.240;9.088;2023-03-14T05:51:43;10.50;99.90
18868;DHT22;9563;49.240;9.088;2023-03-14T05:54:10;10.60;99.90
18868;DHT22;9563;49.240;9.088;2023-03-14T05:56:37;10.50;99.90
18868;DHT22;9563;49.240;9.088;2023-03-14T05:59:04;10.60;99.90
18868;DHT22;9563;49.240;9.088;2023-03-14T06:01:32;10.50;99.90
18868;DHT22;9563;49.240;9.088;2023-03-14T06:03:59;10.60;99.90
18868;DHT22;9563;49.240;9.088;2023-03-14T06:06:28;10.50;99.90
18868;DHT22;9563;49.240;9.088;2023-03-14T06:08:54;10.60;99.90
18868;DHT22;9563;49.240;9.088;2023-03-14T06:11:21;10.50;99.90
18868;DHT22;9563;49.240;9.088;2023-03-14T06:13:48;10.50;99.90
18868;DHT22;9563;49.240;9.088;2023-03-14T06:16:15;10.50;99.90
18868;DHT22;9563;49.240;9.088;2023-03-14T06:18:41;10.60;99.90
18868;DHT22;9563;49.240;9.088;2023-03-14T06:21:08;10.60;99.90
18868;DHT22;9563;49.240;9.088;2023-03-14T06:23:36;10.60;99.90
18868;DHT22;9563;49.240;9.088;2023-03-14T06:26:04;10.60;99.90
18868;DHT22;9563;49.240;9.088;2023-03-14T06:28:31;10.60;99.90
18868;DHT22;9563;49.240;9.088;2023-03-14T06:30:59;10.60;99.90
18868;DHT22;9563;49.240;9.088;2023-03-14T06:33:26;10.60;99.90
18868;DHT22;9563;49.240;9.088;2023-03-14T06:35:53;10.50;99.90
18868;DHT22;9563;49.240;9.088;2023-03-14T06:38:20;10.60;99.90
18868;DHT22;9563;49.240;9.088;2023-03-14T06:40:48;10.60;99.90
18868;DHT22;9563;49.240;9.088;2023-03-14T06:43:15;10.60;99.90
18868;DHT22;9563;49.240;9.088;2023-03-14T06:45:42;10.60;99.90
18868;DHT22;9563;49.240;9.088;2023-03-14T06:48:08;10.70;99.90
18868;DHT22;9563;49.240;9.088;2023-03-14T06:50:36;10.70;99.90
18868;DHT22;9563;49.240;9.088;2023-03-14T06:53:03;10.80;99.90
18868;DHT22;9563;49.240;9.088;2023-03-14T06:55:30;10.80;99.90
18868;DHT22;9563;49.240;9.088;2023-03-14T06:57:58;10.80;99.90
18868;DHT22;9563;49.240;9.088;2023-03-14T07:00:25;10.80;99.90
18868;DHT22;9563;49.240;9.088;2023-03-14T07:02:52;10.80;99.90
18868;DHT22;9563;49.240;9.088;2023-03-14T07:05:19;10.80;99.90
18868;DHT22;9563;49.240;9.088;2023-03-14T07:07:46;10.80;99.90
18868;DHT22;9563;49.240;9.088;2023-03-14T07:10:13;10.80;99.90
18868;DHT22;9563;49.240;9.088;2023-03-14T07:12:40;10.90;99.90
18868;DHT22;9563;49.240;9.088;2023-03-14T07:15:10;10.90;99.90
18868;DHT22;9563;49.240;9.088;2023-03-14T07:17:37;10.90;99.90
18868;DHT22;9563;49.240;9.088;2023-03-14T07:20:04;10.90;99.90
18868;DHT22;9563;49.240;9.088;2023-03-14T07:22:34;11.00;99.90
18868;DHT22;9563;49.240;9.088;2023-03-14T07:25:01;10.90;99.90
18868;DHT22;9563;49.240;9.088;2023-03-14T07:27:28;11.00;99.90
18868;DHT22;9563;49.240;9.088;2023-03-14T07:29:55;11.00;99.90
18868;DHT22;9563;49.240;9.088;2023-03-14T07:32:24;11.00;99.90
18868;DHT22;9563;49.240;9.088;2023-03-14T07:34:51;11.10;99.90
18868;DHT22;9563;49.240;9.088;2023-03-14T07:37:17;11.10;99.90
18868;DHT22;9563;49.240;9.088;2023-03-14T07:39:44;11.10;99.90
18868;DHT22;9563;49.240;9.088;2023-03-14T07:42:11;11.20;99.90
18868;DHT22;9563;49.240;9.088;2023-03-14T07:44:38;11.30;99.90
18868;DHT22;9563;49.240;9.088;2023-03-14T07:47:05;11.40;99.90
18868;DHT22;9563;49.240;9.088;2023-03-14T07:49:33;11.50;99.90
18868;DHT22;9563;49.240;9.088;2023-03-14T07:52:00;11.80;99.90
18868;DHT22;9563;49.240;9.088;2023-03-14T07:54:27;12.10;99.90
18868;DHT22;9563;49.240;9.088;2023-03-14T07:56:54;12.40;99.90
18868;DHT22;9563;49.240;9.088;2023-03-14T07:59:21;12.50;99.90
18868;DHT22;9563;49.240;9.088;2023-03-14T08:01:48;12.40;99.90
18868;DHT22;9563;49.240;9.088;2023-03-14T08:04:15;12.10;99.90
18868;DHT22;9563;49.240;9.088;2023-03-14T08:06:43;12.00;99.90
18868;DHT22;9563;49.240;9.088;2023-03-14T08:09:10;11.80;99.90
18868;DHT22;9563;49.240;9.088;2023-03-14T08:11:37;11.70;99.90
18868;DHT22;9563;49.240;9.088;2023-03-14T08:14:04;11.60;99.90
18868;DHT22;9563;49.240;9.088;2023-03-14T08:16:31;11.60;99.90
18868;DHT22;9563;49.240;9.088;2023-03-14T08:18:58;11.70;99.90
18868;DHT22;9563;49.240;9.088;2023-03-14T08:21:24;12.00;99.90
18868;DHT22;9563;49.240;9.088;2023-03-14T08:23:53;12.10;99.90
18868;DHT22;9563;49.240;9.088;2023-03-14T08:26:20;12.20;99.90
18868;DHT22;9563;49.240;9.088;2023-03-14T08:28:47;12.00;99.90
18868;DHT22;9563;49.240;9.088;2023-03-14T08:31:14;11.90;99.90
18868;DHT22;9563;49.240;9.088;2023-03-14T08:33:41;11.80;99.90
18868;DHT22;9563;49.240;9.088;2023-03-14T08:36:08;11.70;99.90
18868;DHT22;9563;49.240;9.088;2023-03-14T08:38:36;11.70;99.90
18868;DHT22;9563;49.240;9.088;2023-03-14T08:41:04;11.50;99.90
18868;DHT22;9563;49.240;9.088;2023-03-14T08:43:31;11.50;99.90
18868;DHT22;9563;49.240;9.088;2023-03-14T08:45:59;11.30;99.90
18868;DHT22;9563;49.240;9.088;2023-03-14T08:48:26;11.30;99.90
18868;DHT22;9563;49.240;9.088;2023-03-14T08:50:56;11.20;99.90
18868;DHT22;9563;49.240;9.088;2023-03-14T08:53:23;11.20;99.90
18868;DHT22;9563;49.240;9.088;2023-03-14T08:55:53;11.20;99.90
18868;DHT22;9563;49.240;9.088;2023-03-14T08:58:21;11.20;99.90
18868;DHT22;9563;49.240;9.088;2023-03-14T09:00:49;11.10;99.90
18868;DHT22;9563;49.240;9.088;2023-03-14T09:03:16;11.20;99.90
18868;DHT22;9563;49.240;9.088;2023-03-14T09:05:42;11.10;99.90
18868;DHT22;9563;49.240;9.088;2023-03-14T09:08:09;11.10;99.90
18868;DHT22;9563;49.240;9.088;2023-03-14T09:10:37;11.10;99.90
18868;DHT22;9563;49.240;9.088;2023-03-14T09:13:03;11.20;99.90
18868;DHT22;9563;49.240;9.088;2023-03-14T09:15:32;11.30;99.90
18868;DHT22;9563;49.240;9.088;2023-03-14T09:17:59;11.30;99.90
18868;DHT22;9563;49.240;9.088;2023-03-14T09:20:26;11.20;99.90
18868;DHT22;9563;49.240;9.088;2023-03-14T09:22:53;11.20;99.90
18868;DHT22;9563;49.240;9.088;2023-03-14T09:25:20;11.30;99.90
18868;DHT22;9563;49.240;9.088;2023-03-14T09:27:47;11.40;99.90
18868;DHT22;9563;49.240;9.088;2023-03-14T09:30:14;11.60;99.90
18868;DHT22;9563;49.240;9.088;2023-03-14T09:32:42;11.80;99.90
18868;DHT22;9563;49.240;9.088;2023-03-14T09:35:09;12.10;99.90
18868;DHT22;9563;49.240;9.088;2023-03-14T09:37:36;12.00;99.90
18868;DHT22;9563;49.240;9.088;2023-03-14T09:40:04;11.80;99.90
18868;DHT22;9563;49.240;9.088;2023-03-14T09:42:37;11.70;99.90
18868;DHT22;9563;49.240;9.088;2023-03-14T09:45:09;11.70;99.90
18868;DHT22;9563;49.240;9.088;2023-03-14T09:47:37;11.50;99.90
18868;DHT22;9563;49.240;9.088;2023-03-14T09:50:09;11.40;99.90
18868;DHT22;9563;49.240;9.088;2023-03-14T09:52:38;11.20;99.90
18868;DHT22;9563;49.240;9.088;2023-03-14T09:55:11;11.10;99.90
18868;DHT22;9563;49.240;9.088;2023-03-14T09:57:39;11.20;99.90
18868;DHT22;9563;49.240;9.088;2023-03-14T10:00:14;11.40;99.90
18868;DHT22;9563;49.240;9.088;2023-03-14T10:02:51;11.40;99.90
18868;DHT22;9563;49.240;9.088;2023-03-14T10:05:22;11.40;99.90
18868;DHT22;9563;49.240;9.088;2023-03-14T10:07:50;11.60;99.90
18868;DHT22;9563;49.240;9.088;2023-03-14T10:10:19;11.50;99.90
18868;DHT22;9563;49.240;9.088;2023-03-14T10:12:47;11.50;99.90
18868;DHT22;9563;49.240;9.088;2023-03-14T10:15:15;11.70;99.90
18868;DHT22;9563;49.240;9.088;2023-03-14T10:17:50;11.70;99.90
18868;DHT22;9563;49.240;9.088;2023-03-14T10:20:31;11.80;99.90
18868;DHT22;9563;49.240;9.088;2023-03-14T10:23:22;12.10;99.90
18868;DHT22;9563;49.240;9.088;2023-03-14T10:26:00;12.00;99.90
18868;DHT22;9563;49.240;9.088;2023-03-14T10:28:31;12.00;99.90
18868;DHT22;9563;49.240;9.088;2023-03-14T10:30:59;11.90;99.90
18868;DHT22;9563;49.240;9.088;2023-03-14T10:33:28;12.00;99.90
18868;DHT22;9563;49.240;9.088;2023-03-14T10:35:59;12.00;99.90
18868;DHT22;9563;49.240;9.088;2023-03-14T10:38:28;11.80;99.90
18868;DHT22;9563;49.240;9.088;2023-03-14T10:40:56;11.50;99.90
18868;DHT22;9563;49.240;9.088;2023-03-14T10:43:25;11.30;99.90
18868;DHT22;9563;49.240;9.088;2023-03-14T10:45:55;11.20;99.90
18868;DHT22;9563;49.240;9.088;2023-03-14T10:48:29;11.20;99.90
18868;DHT22;9563;49.240;9.088;2023-03-14T10:51:04;11.20;99.90
18868;DHT22;9563;49.240;9.088;2023-03-14T10:53:40;11.20;99.90
18868;DHT22;9563;49.240;9.088;2023-03-14T10:56:12;11.20;99.90
18868;DHT22;9563;49.240;9.088;2023-03-14T10:58:41;11.00;99.90
18868;DHT22;9563;49.240;9.088;2023-03-14T11:01:18;10.90;99.90
18868;DHT22;9563;49.240;9.088;2023-03-14T11:03:52;10.90;99.90
18868;DHT22;9563;49.240;9.088;2023-03-14T11:06:26;10.80;99.90
18868;DHT22;9563;49.240;9.088;2023-03-14T11:08:57;10.80;99.90
18868;DHT22;9563;49.240;9.088;2023-03-14T11:11:31;10.70;99.90
18868;DHT22;9563;49.240;9.088;2023-03-14T11:14:08;10.70;99.90
18868;DHT22;9563;49.240;9.088;2023-03-14T11:16:45;10.60;99.90
18868;DHT22;9563;49.240;9.088;2023-03-14T11:19:28;10.60;99.90
18868;DHT22;9563;49.240;9.088;2023-03-14T11:22:05;10.60;99.90
18868;DHT22;9563;49.240;9.088;2023-03-14T11:24:53;10.60;99.90
18868;DHT22;9563;49.240;9.088;2023-03-14T11:27:23;10.60;99.90
18868;DHT22;9563;49.240;9.088;2023-03-14T11:29:55;10.60;99.90
18868;DHT22;9563;49.240;9.088;2023-03-14T11:32:31;10.60;99.90
18868;DHT22;9563;49.240;9.088;2023-03-14T11:35:04;10.50;99.90
18868;DHT22;9563;49.240;9.088;2023-03-14T11:37:38;10.50;99.90
18868;DHT22;9563;49.240;9.088;2023-03-14T11:40:13;10.50;99.90
18868;DHT22;9563;49.240;9.088;2023-03-14T11:42:43;10.40;99.90
18868;DHT22;9563;49.240;9.088;2023-03-14T11:45:17;10.30;99.90
18868;DHT22;9563;49.240;9.088;2023-03-14T11:47:48;10.10;99.90
18868;DHT22;9563;49.240;9.088;2023-03-14T11:50:20;10.10;99.90
18868;DHT22;9563;49.240;9.088;2023-03-14T11:52:51;10.10;99.90
18868;DHT22;9563;49.240;9.088;2023-03-14T11:55:23;10.00;99.90
18868;DHT22;9563;49.240;9.088;2023-03-14T11:57:53;10.00;99.90
18868;DHT22;9563;49.240;9.088;2023-03-14T12:00:24;10.00;99.90
18868;DHT22;9563;49.240;9.088;2023-03-14T12:02:55;10.10;99.90
18868;DHT22;9563;49.240;9.088;2023-03-14T12:05:46;10.20;99.90
18868;DHT22;9563;49.240;9.088;2023-03-14T12:08:43;10.20;99.90
18868;DHT22;9563;49.240;9.088;2023-03-14T12:11:16;10.10;99.90
18868;DHT22;9563;49.240;9.088;2023-03-14T12:13:47;10.10;99.90
18868;DHT22;9563;49.240;9.088;2023-03-14T12:16:30;10.00;99.90
18868;DHT22;9563;49.240;9.088;2023-03-14T12:18:57;10.00;99.90
18868;DHT22;9563;49.240;9.088;2023-03-14T12:21:47;9.90;99.90
18868;DHT22;9563;49.240;9.088;2023-03-14T12:24:22;9.80;99.90
18868;DHT22;9563;49.240;9.088;2023-03-14T12:26:53;9.70;99.90
18868;DHT22;9563;49.240;9.088;2023-03-14T12:29:21;9.60;99.90
18868;DHT22;9563;49.240;9.088;2023-03-14T12:31:48;9.50;99.90
18868;DHT22;9563;49.240;9.088;2023-03-14T12:34:31;9.50;99.90
18868;DHT22;9563;49.240;9.088;2023-03-14T12:37:12;9.40;99.90
18868;DHT22;9563;49.240;9.088;2023-03-14T12:39:53;9.30;99.90
18868;DHT22;9563;49.240;9.088;2023-03-14T12:42:38;9.30;99.90
18868;DHT22;9563;49.240;9.088;2023-03-14T12:45:25;9.20;99.90
18868;DHT22;9563;49.240;9.088;2023-03-14T12:50:42;9.00;99.90
18868;DHT22;9563;49.240;9.088;2023-03-14T12:59:34;8.60;99.90
18868;DHT22;9563;49.240;9.088;2023-03-14T13:04:47;8.50;99.90
18868;DHT22;9563;49.240;9.088;2023-03-14T13:07:33;8.50;99.90
18868;DHT22;9563;49.240;9.088;2023-03-14T13:12:49;8.30;99.90
18868;DHT22;9563;49.240;9.088;2023-03-14T13:15:23;8.30;99.90
18868;DHT22;9563;49.240;9.088;2023-03-14T13:17:53;8.40;99.90
18868;DHT22;9563;49.240;9.088;2023-03-14T13:20:28;8.50;99.90
18868;DHT22;9563;49.240;9.088;2023-03-14T13:22:55;8.60;99.90
18868;DHT22;9563;49.240;9.088;2023-03-14T13:25:22;8.70;99.90
18868;DHT22;9563;49.240;9.088;2023-03-14T13:27:52;8.70;99.90
18868;DHT22;9563;49.240;9.088;2023-03-14T13:30:24;8.80;99.90
18868;DHT22;9563;49.240;9.088;2023-03-14T13:32:52;8.80;99.90
18868;DHT22;9563;49.240;9.088;2023-03-14T13:35:22;8.90;99.90
18868;DHT22;9563;49.240;9.088;2023-03-14T13:37:58;9.00;99.90
18868;DHT22;9563;49.240;9.088;2023-03-14T13:40:29;9.20;99.90
18868;DHT22;9563;49.240;9.088;2023-03-14T13:43:02;9.30;99.90
18868;DHT22;9563;49.240;9.088;2023-03-14T13:45:43;9.40;99.90
18868;DHT22;9563;49.240;9.088;2023-03-14T13:48:11;9.40;99.90
18868;DHT22;9563;49.240;9.088;2023-03-14T13:50:45;9.50;99.90
18868;DHT22;9563;49.240;9.088;2023-03-14T13:53:12;9.50;99.90
18868;DHT22;9563;49.240;9.088;2023-03-14T13:55:39;9.80;99.90
18868;DHT22;9563;49.240;9.088;2023-03-14T13:58:18;10.00;99.90
18868;DHT22;9563;49.240;9.088;2023-03-14T14:00:57;10.00;99.90
18868;DHT22;9563;49.240;9.088;2023-03-14T14:03:25;9.80;99.90
18868;DHT22;9563;49.240;9.088;2023-03-14T14:05:55;9.70;99.90
18868;DHT22;9563;49.240;9.088;2023-03-14T14:08:22;9.40;99.90
18868;DHT22;9563;49.240;9.088;2023-03-14T14:10:49;9.30;99.90
18868;DHT22;9563;49.240;9.088;2023-03-14T14:13:20;9.30;99.90
18868;DHT22;9563;49.240;9.088;2023-03-14T14:15:51;9.20;99.90
18868;DHT22;9563;49.240;9.088;2023-03-14T14:18:21;9.00;99.90
18868;DHT22;9563;49.240;9.088;2023-03-14T14:20:49;8.90;99.90
18868;DHT22;9563;49.240;9.088;2023-03-14T14:23:18;9.00;99.90
18868;DHT22;9563;49.240;9.088;2023-03-14T14:25:50;8.90;99.90
18868;DHT22;9563;49.240;9.088;2023-03-14T14:28:23;8.90;99.90
18868;DHT22;9563;49.240;9.088;2023-03-14T14:31:01;8.90;99.90
18868;DHT22;9563;49.240;9.088;2023-03-14T14:33:28;8.90;99.90
18868;DHT22;9563;49.240;9.088;2023-03-14T14:35:57;9.00;99.90
18868;DHT22;9563;49.240;9.088;2023-03-14T14:38:24;9.10;99.90
18868;DHT22;9563;49.240;9.088;2023-03-14T14:40:54;9.00;99.90
18868;DHT22;9563;49.240;9.088;2023-03-14T14:43:23;9.00;99.90
18868;DHT22;9563;49.240;9.088;2023-03-14T14:45:53;9.10;99.90
18868;DHT22;9563;49.240;9.088;2023-03-14T14:48:23;9.10;99.90
18868;DHT22;9563;49.240;9.088;2023-03-14T14:50:56;9.10;99.90
18868;DHT22;9563;49.240;9.088;2023-03-14T14:53:28;9.00;99.90
18868;DHT22;9563;49.240;9.088;2023-03-14T14:55:56;8.80;99.90
18868;DHT22;9563;49.240;9.088;2023-03-14T14:58:26;8.80;99.90
18868;DHT22;9563;49.240;9.088;2023-03-14T15:00:57;8.90;99.90
18868;DHT22;9563;49.240;9.088;2023-03-14T15:03:28;9.00;99.90
18868;DHT22;9563;49.240;9.088;2023-03-14T15:05:56;9.10;99.90
18868;DHT22;9563;49.240;9.088;2023-03-14T15:08:24;9.40;99.90
18868;DHT22;9563;49.240;9.088;2023-03-14T15:10:52;9.50;99.90
18868;DHT22;9563;49.240;9.088;2023-03-14T15:13:19;9.90;99.90
18868;DHT22;9563;49.240;9.088;2023-03-14T15:15:46;10.10;99.90
18868;DHT22;9563;49.240;9.088;2023-03-14T15:18:15;10.60;99.90
18868;DHT22;9563;49.240;9.088;2023-03-14T15:20:44;10.60;99.90
18868;DHT22;9563;49.240;9.088;2023-03-14T15:23:12;10.40;99.90
18868;DHT22;9563;49.240;9.088;2023-03-14T15:25:40;10.20;99.90
18868;DHT22;9563;49.240;9.088;2023-03-14T15:28:14;10.00;99.90
18868;DHT22;9563;49.240;9.088;2023-03-14T15:30:42;9.80;99.90
18868;DHT22;9563;49.240;9.088;2023-03-14T15:33:10;9.70;99.90
18868;DHT22;9563;49.240;9.088;2023-03-14T15:35:37;9.80;99.90
18868;DHT22;9563;49.240;9.088;2023-03-14T15:38:05;9.90;99.90
18868;DHT22;9563;49.240;9.088;2023-03-14T15:40:32;10.00;99.90
18868;DHT22;9563;49.240;9.088;2023-03-14T15:42:59;10.00;99.90
18868;DHT22;9563;49.240;9.088;2023-03-14T15:45:26;10.20;99.90
18868;DHT22;9563;49.240;9.088;2023-03-14T15:47:53;10.30;99.90
18868;DHT22;9563;49.240;9.088;2023-03-14T15:50:20;10.10;99.90
18868;DHT22;9563;49.240;9.088;2023-03-14T15:52:47;10.20;99.90
18868;DHT22;9563;49.240;9.088;2023-03-14T15:55:16;10.20;99.90
18868;DHT22;9563;49.240;9.088;2023-03-14T15:57:43;10.10;99.90
18868;DHT22;9563;49.240;9.088;2023-03-14T16:00:13;10.10;99.90
18868;DHT22;9563;49.240;9.088;2023-03-14T16:02:41;10.00;99.90
18868;DHT22;9563;49.240;9.088;2023-03-14T16:05:09;9.80;99.90
18868;DHT22;9563;49.240;9.088;2023-03-14T16:07:36;9.80;99.90
18868;DHT22;9563;49.240;9.088;2023-03-14T16:10:04;9.80;99.90
18868;DHT22;9563;49.240;9.088;2023-03-14T16:12:33;9.90;99.90
18868;DHT22;9563;49.240;9.088;2023-03-14T16:15:00;10.10;99.90
18868;DHT22;9563;49.240;9.088;2023-03-14T16:17:27;10.10;99.90